Time;durP1;ratioP1;P1;durP2;ratioP2;P2;SDS_P1;SDS_P2;PMS_P1;PMS_P2;Temp;Humidity;BMP_temperature;BMP_pressure;BME280_temperature;BME280_humidity;BME280_pressure;Samples;Min_cycle;Max_cycle;Signal;HPM_P1;HPM_P2
2023/11/03 00:00:18;;;;;;;7.68;4.88;;;;;;;8.59;79.02;93950.63;6289557;22;20026;-79
2023/11/03 00:02:46;;;;;;;6.93;5.55;;;;;;;8.64;80.16;93958.50;6288967;22;20019;-80
2023/11/03 00:05:14;;;;;;;8.18;5.38;;;;;;;8.67;79.02;93965.03;6295004;22;20020;-79
2023/11/03 00:07:42;;;;;;;6.03;4.60;;;;;;;8.64;77.85;93976.69;6293220;22;20099;-80
2023/11/03 00:10:10;;;;;;;5.03;4.32;;;;;;;8.62;78.33;93983.91;6289151;22;20051;-80
2023/11/03 00:12:39;;;;;;;3.97;3.53;;;;;;;8.61;77.70;93977.13;6287500;22;20067;-80
2023/11/03 00:15:09;;;;;;;5.28;4.75;;;;;;;8.60;78.06;93954.78;6287864;22;20071;-79
2023/11/03 00:17:38;;;;;;;4.43;3.78;;;;;;;8.60;78.12;93959.97;6289333;22;20457;-79
2023/11/03 00:20:07;;;;;;;4.78;4.25;;;;;;;8.62;79.02;93970.94;6289808;22;20476;-80
2023/11/03 00:22:35;;;;;;;4.07;3.58;;;;;;;8.65;79.36;93959.28;6291307;22;20052;-80
2023/11/03 00:25:03;;;;;;;4.05;3.60;;;;;;;8.66;79.73;93956.44;6291141;22;20020;-80
2023/11/03 00:27:32;;;;;;;8.13;3.97;;;;;;;8.64;78.45;93957.72;6290374;22;20031;-80
2023/11/03 00:30:00;;;;;;;4.68;4.18;;;;;;;8.61;78.05;93961.53;6291195;22;20472;-80
2023/11/03 00:32:30;;;;;;;4.03;3.67;;;;;;;8.59;77.64;93948.03;6290679;22;20348;-80
2023/11/03 00:34:57;;;;;;;5.40;4.00;;;;;;;8.56;78.77;93940.69;6290301;22;20047;-80
2023/11/03 00:37:25;;;;;;;4.43;4.03;;;;;;;8.58;79.27;93928.25;6290108;22;20027;-79
2023/11/03 00:39:53;;;;;;;4.65;4.03;;;;;;;8.62;80.57;93931.16;6289593;22;20039;-80
2023/11/03 00:42:21;;;;;;;5.20;4.07;;;;;;;8.62;79.21;93933.75;6289613;22;20016;-80
2023/11/03 00:44:48;;;;;;;7.50;5.28;;;;;;;8.57;78.44;93949.25;6290031;22;20030;-79
2023/11/03 00:47:16;;;;;;;5.15;4.65;;;;;;;8.53;77.73;93953.38;6290253;22;20019;-80
2023/11/03 00:49:45;;;;;;;9.00;5.18;;;;;;;8.48;76.97;93955.84;6288912;22;20349;-80
2023/11/03 00:52:13;;;;;;;6.70;4.95;;;;;;;8.39;77.16;93951.00;6290528;22;20476;-80
2023/11/03 00:54:41;;;;;;;5.97;5.13;;;;;;;8.32;77.60;93949.56;6289820;22;20049;-79
2023/11/03 00:57:08;;;;;;;5.55;4.90;;;;;;;8.25;77.58;93940.09;6290464;22;20027;-80
2023/11/03 00:59:36;;;;;;;6.22;4.85;;;;;;;8.20;77.78;93928.88;6291558;22;20018;-79
2023/11/03 01:02:04;;;;;;;6.55;5.80;;;;;;;8.19;77.65;93922.06;6291064;22;20016;-79
2023/11/03 01:04:32;;;;;;;9.02;5.57;;;;;;;8.16;77.61;93919.97;6291404;22;20492;-80
2023/11/03 01:07:02;;;;;;;7.97;6.20;;;;;;;8.12;78.21;93927.41;6291137;22;20050;-80
2023/11/03 01:09:29;;;;;;;5.47;4.65;;;;;;;8.11;78.16;93931.03;6289962;22;20022;-82
2023/11/03 01:11:57;;;;;;;5.82;4.80;;;;;;;8.08;77.59;93931.47;6287046;22;20497;-82
2023/11/03 01:14:25;;;;;;;7.07;4.95;;;;;;;8.02;77.19;93943.59;6287088;22;20077;-82
2023/11/03 01:16:53;;;;;;;6.72;4.05;;;;;;;7.95;76.94;93957.72;6287862;22;20020;-82
2023/11/03 01:19:21;;;;;;;6.30;4.82;;;;;;;7.88;77.20;93964.84;6287781;22;20020;-82
2023/11/03 01:21:49;;;;;;;6.72;4.70;;;;;;;7.82;77.32;93963.94;6287448;22;20284;-82
2023/11/03 01:24:18;;;;;;;5.32;4.82;;;;;;;7.75;77.36;93964.06;6287190;22;20047;-82
2023/11/03 01:26:46;;;;;;;7.30;4.63;;;;;;;7.71;77.24;93968.13;6286623;22;20461;-82
2023/11/03 01:29:14;;;;;;;7.90;5.85;;;;;;;7.68;77.63;93963.41;6287136;22;20038;-82
2023/11/03 01:31:41;;;;;;;9.30;6.65;;;;;;;7.68;78.34;93963.41;6289986;22;20019;-80
2023/11/03 01:34:09;;;;;;;9.07;6.50;;;;;;;7.71;79.20;93962.94;6293283;22;20024;-80
2023/11/03 01:36:38;;;;;;;6.55;5.93;;;;;;;7.75;79.43;93966.66;6302378;22;20020;-80
2023/11/03 01:39:08;;;;;;;5.88;5.18;;;;;;;7.76;78.65;93960.47;6292017;22;20050;-80
2023/11/03 01:41:37;;;;;;;6.40;4.95;;;;;;;7.69;77.75;93959.78;6291381;22;20019;-80
2023/11/03 01:44:11;;;;;;;5.90;5.28;;;;;;;7.70;80.20;93965.78;6291347;22;20023;-80
2023/11/03 01:46:41;;;;;;;6.00;4.93;;;;;;;7.74;80.42;93979.84;6291149;22;20015;-80
2023/11/03 01:49:11;;;;;;;15.73;6.13;;;;;;;7.76;79.54;93986.44;6291037;22;20016;-80
2023/11/03 01:51:42;;;;;;;6.10;4.72;;;;;;;7.72;78.68;93987.91;6301358;22;20020;-79
2023/11/03 01:54:10;;;;;;;7.07;5.13;;;;;;;7.63;78.15;93982.25;6304446;22;20023;-80
2023/11/03 01:56:40;;;;;;;7.55;4.88;;;;;;;7.59;78.23;93980.34;6299855;22;20028;-80
2023/11/03 01:59:09;;;;;;;6.55;5.45;;;;;;;7.55;78.19;93981.81;6294489;22;20019;-80
2023/11/03 02:01:37;;;;;;;8.82;5.00;;;;;;;7.52;78.26;93992.63;6294544;22;20020;-80
2023/11/03 02:04:05;;;;;;;5.28;4.68;;;;;;;7.48;78.21;93986.31;6293704;22;20469;-80
2023/11/03 02:06:33;;;;;;;7.38;4.63;;;;;;;7.46;78.02;93983.19;6292180;22;20396;-80
2023/11/03 02:09:01;;;;;;;5.72;5.13;;;;;;;7.45;78.29;93981.59;6292141;22;20024;-80
2023/11/03 02:11:30;;;;;;;6.85;6.15;;;;;;;7.45;78.10;93976.41;6291708;22;20020;-80
2023/11/03 02:13:59;;;;;;;8.20;6.20;;;;;;;7.45;78.73;93976.41;6291788;22;20060;-80
2023/11/03 02:16:27;;;;;;;8.13;6.00;;;;;;;7.45;78.56;93976.41;6291074;22;20020;-80
2023/11/03 02:18:55;;;;;;;8.02;6.05;;;;;;;7.43;77.72;93971.44;6291578;22;20028;-80
2023/11/03 02:21:23;;;;;;;8.25;5.60;;;;;;;7.36;77.40;93976.72;6293357;22;20089;-80
2023/11/03 02:23:52;;;;;;;6.35;4.72;;;;;;;7.33;76.97;93972.00;6291976;22;20410;-80
2023/11/03 02:26:20;;;;;;;6.47;5.35;;;;;;;7.31;77.64;93971.44;6291278;22;20031;-80
2023/11/03 02:28:48;;;;;;;5.63;4.68;;;;;;;7.30;77.78;93977.63;6291213;22;20031;-80
2023/11/03 02:31:15;;;;;;;6.40;4.95;;;;;;;7.30;77.53;93982.81;6292681;22;20402;-80
2023/11/03 02:33:43;;;;;;;5.75;4.20;;;;;;;7.28;76.65;93979.69;6291465;22;20076;-80
2023/11/03 02:36:10;;;;;;;6.10;3.28;;;;;;;7.21;76.65;93974.63;6290676;22;20027;-79
2023/11/03 02:38:38;;;;;;;4.13;3.63;;;;;;;7.18;76.94;93979.44;6290012;22;20012;-79
2023/11/03 02:41:07;;;;;;;7.20;4.38;;;;;;;7.15;76.44;93985.06;6291858;22;20020;-80
2023/11/03 02:43:35;;;;;;;6.32;4.10;;;;;;;7.11;76.33;93983.97;6291530;22;20020;-80
2023/11/03 02:46:04;;;;;;;4.72;3.80;;;;;;;7.10;77.67;93979.78;6290907;22;20020;-80
2023/11/03 02:48:32;;;;;;;4.93;4.10;;;;;;;7.13;78.22;93982.72;6292375;22;20024;-80
2023/11/03 02:51:00;;;;;;;7.70;5.18;;;;;;;7.09;77.26;93994.53;6291967;22;20015;-80
2023/11/03 02:53:28;;;;;;;5.15;4.43;;;;;;;7.03;76.62;93992.06;6290588;22;20020;-80
2023/11/03 02:55:55;;;;;;;5.65;4.60;;;;;;;6.95;76.57;93977.59;6290157;22;20401;-80
2023/11/03 02:58:27;;;;;;;7.63;4.72;;;;;;;6.90;76.35;93980.88;6291432;22;20020;-80
2023/11/03 03:00:55;;;;;;;6.05;4.57;;;;;;;6.84;76.29;93976.56;6291673;22;20020;-80
2023/11/03 03:03:23;;;;;;;7.35;4.00;;;;;;;6.76;76.38;93977.69;6290968;22;20016;-80
2023/11/03 03:05:50;;;;;;;5.25;4.05;;;;;;;6.68;76.00;93980.59;6291077;22;20066;-80
2023/11/03 03:08:18;;;;;;;5.28;4.50;;;;;;;6.56;76.12;93975.41;6290650;22;20020;-80
2023/11/03 03:10:46;;;;;;;6.38;4.63;;;;;;;6.49;76.30;93976.50;6292245;22;20019;-80
2023/11/03 03:13:14;;;;;;;7.38;4.72;;;;;;;6.42;76.60;93976.59;6292664;22;20019;-80
2023/11/03 03:15:43;;;;;;;6.57;4.90;;;;;;;6.37;76.49;93979.06;6291849;22;20016;-80
2023/11/03 03:18:11;;;;;;;10.43;5.55;;;;;;;6.35;77.10;93975.88;6292602;22;20019;-80
2023/11/03 03:20:39;;;;;;;7.47;6.00;;;;;;;6.31;76.90;93978.13;6292384;22;20016;-80
2023/11/03 03:23:07;;;;;;;6.85;5.38;;;;;;;6.30;77.13;93965.41;6298264;22;20019;-80
2023/11/03 03:25:35;;;;;;;15.70;6.40;;;;;;;6.27;77.08;93963.25;6298956;22;20023;-80
2023/11/03 03:28:02;;;;;;;10.10;5.70;;;;;;;6.26;77.02;93956.50;6292885;22;20019;-80
2023/11/03 03:30:30;;;;;;;7.57;5.05;;;;;;;6.23;77.32;93955.16;6293847;22;20019;-80
2023/11/03 03:32:59;;;;;;;7.03;4.80;;;;;;;6.21;77.23;93954.56;6293840;22;20361;-80
2023/11/03 03:35:27;;;;;;;7.05;5.00;;;;;;;6.18;77.34;93955.78;6293615;22;20016;-80
2023/11/03 03:37:54;;;;;;;6.32;4.78;;;;;;;6.21;77.74;93958.94;6293690;22;20020;-80
2023/11/03 03:40:22;;;;;;;7.63;5.10;;;;;;;6.24;78.43;93948.16;6293776;22;20464;-80
2023/11/03 03:42:50;;;;;;;7.07;5.15;;;;;;;6.28;78.26;93949.31;6293033;22;20019;-80
2023/11/03 03:45:17;;;;;;;7.38;5.10;;;;;;;6.26;77.25;93946.94;6296095;22;20020;-80
2023/11/03 03:47:45;;;;;;;6.57;4.35;;;;;;;6.23;77.14;93949.97;6299548;22;20020;-80
2023/11/03 03:50:14;;;;;;;10.65;4.88;;;;;;;6.21;77.38;93938.22;6299181;22;20033;-80
2023/11/03 03:52:42;;;;;;;5.95;4.65;;;;;;;6.22;79.09;93932.06;6294250;22;20050;-80
2023/11/03 03:55:09;;;;;;;7.38;4.85;;;;;;;6.30;80.69;93936.94;6293026;22;20019;-81
2023/11/03 03:57:37;;;;;;;6.05;4.65;;;;;;;6.35;80.77;93931.88;6293484;22;20024;-80
2023/11/03 04:00:07;;;;;;;5.43;3.63;;;;;;;6.39;81.12;93951.13;6291934;22;20012;-80
2023/11/03 04:02:34;;;;;;;6.53;4.57;;;;;;;6.47;83.12;93943.06;6293092;22;20007;-80
2023/11/03 04:05:02;;;;;;;6.60;4.97;;;;;;;6.55;82.30;93939.34;6292371;22;20020;-80
2023/11/03 04:07:32;;;;;;;4.95;4.18;;;;;;;6.53;80.65;93949.94;6291841;22;20477;-80
2023/11/03 04:10:00;;;;;;;6.78;4.63;;;;;;;6.50;79.19;93947.78;6292636;22;20031;-80
2023/11/03 04:12:28;;;;;;;5.68;3.75;;;;;;;6.41;78.06;93943.94;6292688;22;20067;-80
2023/11/03 04:14:55;;;;;;;8.15;4.80;;;;;;;6.31;77.89;93946.28;6292455;22;20019;-80
2023/11/03 04:17:23;;;;;;;5.60;4.50;;;;;;;6.22;77.50;93935.44;6293873;22;20022;-80
2023/11/03 04:19:51;;;;;;;7.25;4.53;;;;;;;6.16;77.72;93941.47;6293772;22;20016;-80
2023/11/03 04:22:20;;;;;;;6.60;3.90;;;;;;;6.09;77.24;93936.41;6294340;22;20023;-80
2023/11/03 04:24:49;;;;;;;6.38;4.22;;;;;;;6.05;77.58;93945.59;6294276;22;20019;-80
2023/11/03 04:27:17;;;;;;;4.78;3.95;;;;;;;6.06;78.53;93957.53;6294342;22;20075;-80
2023/11/03 04:29:45;;;;;;;5.30;4.22;;;;;;;6.10;79.29;93963.88;6294115;22;20019;-80
2023/11/03 04:32:12;;;;;;;6.35;4.20;;;;;;;6.17;80.07;93979.31;6293861;22;20016;-80
2023/11/03 04:34:40;;;;;;;4.55;3.72;;;;;;;6.25;81.51;93975.63;6294323;22;20469;-80
2023/11/03 04:37:08;;;;;;;5.95;4.18;;;;;;;6.27;80.66;93976.97;6294250;22;20023;-80
2023/11/03 04:39:36;;;;;;;5.00;4.03;;;;;;;6.26;79.25;93972.03;6294747;22;20040;-80
2023/11/03 04:42:05;;;;;;;5.35;3.67;;;;;;;6.24;78.38;93974.84;6293653;22;20016;-80
2023/11/03 04:44:34;;;;;;;4.93;3.92;;;;;;;6.22;78.29;93989.00;6292058;22;20412;-80
2023/11/03 04:47:02;;;;;;;5.28;3.60;;;;;;;6.21;79.02;93990.00;6288848;22;20020;-80
2023/11/03 04:49:30;;;;;;;5.72;4.00;;;;;;;6.24;80.35;93989.59;6290268;22;20022;-82
2023/11/03 04:51:58;;;;;;;7.82;4.20;;;;;;;6.27;79.90;93989.13;6290379;22;20051;-81
2023/11/03 04:54:26;;;;;;;5.07;3.80;;;;;;;6.26;79.15;93982.38;6288910;22;20020;-82
2023/11/03 04:56:54;;;;;;;4.93;3.83;;;;;;;6.28;79.18;93983.75;6289240;22;20035;-82
2023/11/03 04:59:23;;;;;;;6.32;3.75;;;;;;;6.28;78.22;93986.34;6289773;22;20015;-82
2023/11/03 05:01:51;;;;;;;5.32;3.85;;;;;;;6.26;78.23;93977.22;6289340;22;20076;-82
2023/11/03 05:04:19;;;;;;;5.30;3.63;;;;;;;6.23;78.38;93985.41;6291814;22;20020;-82
2023/11/03 05:06:50;;;;;;;6.05;3.53;;;;;;;6.21;78.22;93979.66;6298241;22;20030;-82
2023/11/03 05:09:21;;;;;;;4.47;3.40;;;;;;;6.19;77.84;93980.66;6305425;22;20000;-82
2023/11/03 05:11:49;;;;;;;4.65;3.45;;;;;;;6.19;78.10;93983.25;6297098;22;20028;-83
2023/11/03 05:14:17;;;;;;;3.72;2.88;;;;;;;6.23;78.66;93985.41;6293784;22;20020;-82
2023/11/03 05:16:46;;;;;;;6.57;3.70;;;;;;;6.27;79.15;93989.13;6294134;22;20030;-82
2023/11/03 05:19:15;;;;;;;3.92;3.25;;;;;;;6.34;80.86;93995.00;6301743;22;20024;-82
2023/11/03 05:21:42;;;;;;;4.60;3.00;;;;;;;6.41;81.75;93995.72;6293575;22;20020;-82
2023/11/03 05:24:10;;;;;;;4.97;3.42;;;;;;;6.44;80.35;93995.28;6288200;22;20016;-83
2023/11/03 05:26:38;;;;;;;3.78;2.90;;;;;;;6.49;81.26;93998.00;6298380;22;20016;-82
2023/11/03 05:29:06;;;;;;;3.63;2.85;;;;;;;6.57;82.57;93999.50;6298229;22;20055;-82
2023/11/03 05:31:51;;;;;;;3.55;3.22;;;;;;;6.66;83.90;93998.16;6291990;22;20019;-82
2023/11/03 05:34:19;;;;;;;3.40;2.78;;;;;;;6.73;83.56;93990.28;6290586;22;20023;-82
2023/11/03 05:36:47;;;;;;;5.40;3.45;;;;;;;6.72;82.04;93986.94;6289558;22;20023;-82
2023/11/03 05:39:17;;;;;;;4.65;3.25;;;;;;;6.72;82.03;93984.34;6293171;22;20050;-82
2023/11/03 05:41:46;;;;;;;4.85;3.58;;;;;;;6.76;81.98;93987.28;6304213;22;20012;-83
2023/11/03 05:44:14;;;;;;;4.15;2.92;;;;;;;6.74;80.51;93986.72;6290278;22;20057;-82
2023/11/03 05:46:42;;;;;;;4.97;3.38;;;;;;;6.74;81.08;93989.31;6300278;22;20046;-82
2023/11/03 05:49:11;;;;;;;3.58;2.70;;;;;;;6.75;79.99;93996.06;6295621;22;20000;-82
2023/11/03 05:51:40;;;;;;;6.55;2.55;;;;;;;6.71;78.94;93992.31;6296393;22;20053;-83
2023/11/03 05:54:07;;;;;;;3.42;2.65;;;;;;;6.69;79.28;93987.38;6296444;22;20024;-83
2023/11/03 05:56:35;;;;;;;3.15;2.47;;;;;;;6.71;80.66;93984.53;6295470;22;20049;-82
2023/11/03 05:59:03;;;;;;;3.20;2.90;;;;;;;6.76;81.87;93987.28;6296186;22;20023;-82
2023/11/03 06:01:33;;;;;;;5.88;4.38;;;;;;;6.82;82.52;93983.78;6296400;22;20007;-82
2023/11/03 06:04:01;;;;;;;6.28;3.47;;;;;;;6.85;81.40;93988.53;6295844;22;20015;-82
2023/11/03 06:06:30;;;;;;;3.97;2.83;;;;;;;6.83;79.77;93987.97;6294895;22;20090;-83
2023/11/03 06:08:59;;;;;;;5.22;3.28;;;;;;;6.83;80.21;93993.16;6296428;22;20023;-80
2023/11/03 06:11:27;;;;;;;5.22;3.35;;;;;;;6.84;81.10;93989.53;6295880;22;20019;-81
2023/11/03 06:13:55;;;;;;;5.82;2.53;;;;;;;6.88;82.16;93985.50;6296181;22;20019;-80
2023/11/03 06:16:23;;;;;;;4.32;2.85;;;;;;;6.93;82.63;93993.41;6295642;22;20461;-80
2023/11/03 06:18:51;;;;;;;4.25;2.47;;;;;;;6.96;81.86;93999.94;6296907;22;20039;-81
2023/11/03 06:21:21;;;;;;;6.68;2.38;;;;;;;6.98;81.24;94001.28;6296729;22;20349;-80
2023/11/03 06:23:50;;;;;;;4.15;2.72;;;;;;;7.02;82.52;94004.22;6294360;22;20015;-80
2023/11/03 06:26:18;;;;;;;2.97;2.30;;;;;;;7.08;83.45;94005.13;6295514;22;20016;-80
2023/11/03 06:28:46;;;;;;;3.55;2.15;;;;;;;7.12;83.97;94006.25;6294502;22;20046;-80
2023/11/03 06:31:14;;;;;;;5.55;2.42;;;;;;;7.16;83.55;94010.78;6295728;22;20031;-80
2023/11/03 06:33:43;;;;;;;3.95;2.38;;;;;;;7.18;82.28;94026.91;6294153;22;20016;-80
2023/11/03 06:36:10;;;;;;;3.22;2.13;;;;;;;7.18;81.78;94026.91;6295190;22;20026;-80
2023/11/03 06:38:39;;;;;;;3.38;1.98;;;;;;;7.17;80.36;94024.53;6294409;22;20365;-80
2023/11/03 06:41:11;;;;;;;5.57;2.50;;;;;;;7.16;79.43;94030.72;6295092;22;20523;-80
2023/11/03 06:43:41;;;;;;;5.75;2.35;;;;;;;7.19;79.94;94022.50;6294145;22;20023;-81
2023/11/03 06:46:09;;;;;;;6.95;2.10;;;;;;;7.24;79.60;94040.78;6294326;22;20076;-80
2023/11/03 06:48:37;;;;;;;3.47;1.88;;;;;;;7.30;80.70;94037.28;6294049;22;20016;-80
2023/11/03 06:51:10;;;;;;;3.28;2.20;;;;;;;7.40;83.68;94047.88;6294464;22;20071;-80
2023/11/03 06:53:38;;;;;;;2.40;1.90;;;;;;;7.48;83.43;94045.97;6294276;22;20066;-81
2023/11/03 06:56:08;;;;;;;2.65;2.08;;;;;;;7.55;84.28;94054.47;6293285;22;20031;-80
2023/11/03 06:58:36;;;;;;;5.10;3.17;;;;;;;7.57;83.78;94053.22;6292165;22;20023;-80
2023/11/03 07:01:05;;;;;;;9.50;5.45;;;;;;;7.60;82.81;94062.34;6291887;22;20022;-81
2023/11/03 07:03:33;;;;;;;8.25;4.57;;;;;;;7.63;84.02;94067.88;6291533;22;20019;-81
2023/11/03 07:06:03;;;;;;;8.30;5.03;;;;;;;7.71;85.20;94071.94;6290849;22;20083;-80
2023/11/03 07:08:31;;;;;;;8.70;4.90;;;;;;;7.76;85.84;94072.06;6292860;22;20020;-80
2023/11/03 07:10:59;;;;;;;8.77;3.13;;;;;;;7.77;83.82;94068.44;6292544;22;20038;-80
2023/11/03 07:13:29;;;;;;;5.53;2.90;;;;;;;7.74;82.48;94071.50;6291117;22;20362;-80
2023/11/03 07:15:57;;;;;;;5.85;3.97;;;;;;;7.77;84.03;94071.03;6291456;22;20071;-80
2023/11/03 07:18:25;;;;;;;7.05;4.15;;;;;;;7.83;85.01;94064.16;6291251;22;20015;-80
2023/11/03 07:20:53;;;;;;;5.93;4.35;;;;;;;7.87;85.71;94073.06;6291062;22;20015;-82
2023/11/03 07:23:21;;;;;;;7.18;4.00;;;;;;;7.92;85.83;94073.19;6290315;22;20026;-80
2023/11/03 07:25:50;;;;;;;12.27;5.38;;;;;;;7.92;84.21;94072.41;6291567;22;20015;-80
2023/11/03 07:28:18;;;;;;;7.80;4.68;;;;;;;7.92;83.76;94077.59;6292943;22;20038;-80
2023/11/03 07:30:50;;;;;;;8.00;3.88;;;;;;;7.95;84.75;94077.91;6292480;22;20020;-80
2023/11/03 07:33:18;;;;;;;5.47;3.38;;;;;;;7.97;84.18;94075.09;6289194;22;20023;-82
2023/11/03 07:35:47;;;;;;;7.97;3.10;;;;;;;7.98;83.39;94081.84;6294815;22;20045;-82
2023/11/03 07:38:15;;;;;;;8.20;3.40;;;;;;;8.00;84.14;94077.22;6299960;22;20022;-82
2023/11/03 07:40:46;;;;;;;6.05;3.00;;;;;;;8.04;84.88;94080.94;6290651;22;20102;-82
2023/11/03 07:43:15;;;;;;;12.85;3.53;;;;;;;8.05;84.54;94083.31;6288633;22;20019;-82
2023/11/03 07:45:43;;;;;;;4.82;2.75;;;;;;;8.10;84.81;94085.22;6290625;22;20048;-83
2023/11/03 07:48:12;;;;;;;5.93;2.53;;;;;;;8.13;85.86;94091.78;6298829;22;20015;-83
2023/11/03 07:50:40;;;;;;;3.42;2.63;;;;;;;8.16;86.00;94092.13;6296698;22;20019;-82
2023/11/03 07:53:08;;;;;;;5.97;2.35;;;;;;;8.19;86.61;94089.06;6298055;22;20042;-80
2023/11/03 07:55:36;;;;;;;4.50;3.10;;;;;;;8.21;86.91;94094.81;6296151;22;20016;-80
2023/11/03 07:58:05;;;;;;;6.65;3.83;;;;;;;8.23;86.81;94087.59;6291763;22;20035;-80
2023/11/03 08:00:34;;;;;;;6.47;4.40;;;;;;;8.24;86.67;94089.19;6291139;22;20024;-80
2023/11/03 08:03:05;;;;;;;5.82;4.93;;;;;;;8.26;86.81;94091.53;6294051;22;20011;-79
2023/11/03 08:05:35;;;;;;;6.07;4.50;;;;;;;8.26;86.05;94099.31;6304443;22;20003;-80
2023/11/03 08:08:04;;;;;;;6.18;3.78;;;;;;;8.23;85.85;94090.19;6304456;22;20055;-80
2023/11/03 08:10:32;;;;;;;4.25;3.03;;;;;;;8.24;84.91;94086.56;6299133;22;20047;-80
2023/11/03 08:13:00;;;;;;;5.88;2.85;;;;;;;8.22;83.58;94086.00;6291252;22;20015;-80
2023/11/03 08:15:28;;;;;;;4.68;2.65;;;;;;;8.21;83.75;94092.22;6291433;22;20020;-80
2023/11/03 08:17:56;;;;;;;5.35;2.20;;;;;;;8.23;84.27;94092.78;6291672;22;20023;-80
2023/11/03 08:20:23;;;;;;;3.15;1.88;;;;;;;8.24;84.69;94083.97;6291087;22;20020;-80
2023/11/03 08:22:53;;;;;;;5.88;2.30;;;;;;;8.28;82.63;94091.31;6290202;22;20012;-80
2023/11/03 08:25:21;;;;;;;2.83;2.17;;;;;;;8.28;83.15;94106.88;6291421;22;20016;-80
2023/11/03 08:27:49;;;;;;;5.70;1.98;;;;;;;8.27;81.17;94111.31;6291677;22;20098;-80
2023/11/03 08:30:17;;;;;;;6.43;2.58;;;;;;;8.20;79.97;94111.41;6294564;22;20062;-80
2023/11/03 08:32:46;;;;;;;8.13;2.42;;;;;;;8.19;79.83;94114.22;6304292;22;20011;-79
2023/11/03 08:35:15;;;;;;;7.63;3.35;;;;;;;8.21;80.62;94118.19;6303977;22;20054;-79
2023/11/03 08:37:43;;;;;;;5.95;2.65;;;;;;;8.29;82.75;94116.25;6293688;22;20016;-80
2023/11/03 08:40:13;;;;;;;3.88;2.58;;;;;;;8.34;82.38;94131.94;6293381;22;20012;-80
2023/11/03 08:42:43;;;;;;;4.72;2.33;;;;;;;8.33;81.74;94119.97;6291499;22;20550;-80
2023/11/03 08:45:11;;;;;;;7.93;2.33;;;;;;;8.34;82.27;94129.34;6292260;22;20026;-80
2023/11/03 08:47:41;;;;;;;4.95;2.05;;;;;;;8.34;80.50;94132.72;6292287;22;20020;-80
2023/11/03 08:50:10;;;;;;;3.22;1.25;;;;;;;8.32;78.64;94124.38;6290985;22;20449;-80
2023/11/03 08:52:38;;;;;;;3.00;1.35;;;;;;;8.34;79.68;94126.75;6291790;22;20020;-82
2023/11/03 08:55:07;;;;;;;3.17;1.80;;;;;;;8.37;80.85;94127.06;6291791;22;20020;-80
2023/11/03 08:57:37;;;;;;;3.72;1.48;;;;;;;8.39;79.99;94116.47;6291702;22;20024;-80
2023/11/03 09:00:09;;;;;;;3.13;1.60;;;;;;;8.44;80.66;94120.00;6291433;22;20012;-80
2023/11/03 09:02:37;;;;;;;3.75;1.83;;;;;;;8.47;81.93;94121.34;6296157;22;20016;-80
2023/11/03 09:05:07;;;;;;;3.65;2.20;;;;;;;8.50;81.87;94135.69;6289933;22;20016;-80
2023/11/03 09:07:35;;;;;;;3.05;2.00;;;;;;;8.52;82.06;94124.03;6290258;22;20413;-80
2023/11/03 09:10:06;;;;;;;4.93;1.52;;;;;;;8.56;82.40;94139.97;6290491;22;20016;-80
2023/11/03 09:12:34;;;;;;;3.70;1.45;;;;;;;8.55;81.05;94136.59;6290486;22;20015;-80
2023/11/03 09:15:05;;;;;;;2.25;1.00;;;;;;;8.54;79.58;94129.78;6289588;22;20453;-80
2023/11/03 09:17:33;;;;;;;4.18;1.10;;;;;;;8.56;79.72;94138.16;6289028;22;20542;-80
2023/11/03 09:20:04;;;;;;;3.30;1.60;;;;;;;8.57;78.79;94137.16;6290148;22;20054;-80
2023/11/03 09:22:32;;;;;;;6.15;1.27;;;;;;;8.60;79.32;94144.47;6289565;22;20011;-80
2023/11/03 09:25:05;;;;;;;2.38;1.05;;;;;;;8.64;79.61;94144.81;6289370;22;20027;-80
2023/11/03 09:27:34;;;;;;;4.13;1.60;;;;;;;8.66;79.17;94140.19;6288526;22;20098;-80
2023/11/03 09:30:04;;;;;;;2.33;1.10;;;;;;;8.68;78.80;94150.31;6289139;22;20019;-80
2023/11/03 09:32:33;;;;;;;2.78;1.38;;;;;;;8.71;78.55;94152.47;6288211;22;20393;-80
2023/11/03 09:35:01;;;;;;;3.65;1.90;;;;;;;8.72;78.39;94154.03;6289033;22;20022;-80
2023/11/03 09:37:29;;;;;;;4.90;1.73;;;;;;;8.72;79.62;94157.44;6288365;22;20019;-80
2023/11/03 09:39:57;;;;;;;2.55;1.58;;;;;;;8.76;80.73;94155.16;6288900;22;20023;-80
2023/11/03 09:42:25;;;;;;;6.35;2.78;;;;;;;8.74;78.53;94146.81;6292830;22;20071;-79
2023/11/03 09:44:53;;;;;;;10.25;4.45;;;;;;;8.73;78.11;94147.84;6300455;22;20093;-80
2023/11/03 09:47:22;;;;;;;7.63;3.65;;;;;;;8.73;78.11;94147.84;6293297;22;20019;-80
2023/11/03 09:49:50;;;;;;;5.72;3.13;;;;;;;8.77;79.86;94151.56;6294798;22;20061;-80
2023/11/03 09:52:20;;;;;;;9.82;4.07;;;;;;;8.78;78.41;94142.72;6289078;22;20102;-80
2023/11/03 09:54:50;;;;;;;4.63;2.28;;;;;;;8.78;77.64;94147.94;6289249;22;20350;-80
2023/11/03 09:57:19;;;;;;;7.53;2.35;;;;;;;8.81;79.87;94144.84;6288168;22;20016;-80
2023/11/03 09:59:47;;;;;;;2.53;1.75;;;;;;;8.81;77.78;94147.47;6288608;22;20015;-80
2023/11/03 10:02:19;;;;;;;7.20;2.55;;;;;;;8.83;78.59;94141.03;6288197;22;20039;-80
2023/11/03 10:04:49;;;;;;;6.15;2.00;;;;;;;8.86;78.67;94155.38;6288077;22;20020;-80
2023/11/03 10:07:18;;;;;;;3.88;2.17;;;;;;;8.87;79.58;94149.91;6286646;22;20465;-80
2023/11/03 10:09:46;;;;;;;3.55;2.10;;;;;;;8.87;78.91;94152.53;6287595;22;20020;-80
2023/11/03 10:12:15;;;;;;;5.10;2.15;;;;;;;8.85;77.74;94151.19;6289124;22;20023;-80
2023/11/03 10:14:43;;;;;;;5.82;2.22;;;;;;;8.85;78.11;94152.00;6288201;22;20030;-80
2023/11/03 10:17:14;;;;;;;6.43;2.80;;;;;;;8.85;77.90;94145.97;6288297;22;20624;-80
2023/11/03 10:19:42;;;;;;;4.35;2.40;;;;;;;8.89;79.01;94144.50;6288313;22;20027;-79
2023/11/03 10:22:11;;;;;;;4.82;1.20;;;;;;;8.91;77.34;94147.66;6287211;22;20066;-80
2023/11/03 10:24:40;;;;;;;3.45;1.52;;;;;;;8.91;78.00;94141.69;6287946;22;20075;-80
2023/11/03 10:27:11;;;;;;;3.83;1.25;;;;;;;8.89;76.49;94138.53;6287921;22;20042;-80
2023/11/03 10:29:40;;;;;;;2.40;1.38;;;;;;;8.90;78.39;94140.91;6287289;22;20031;-80
2023/11/03 10:32:09;;;;;;;2.92;1.60;;;;;;;8.94;79.95;94131.59;6287885;22;20020;-80
2023/11/03 10:34:39;;;;;;;2.95;1.20;;;;;;;9.00;80.86;94132.47;6288185;22;20016;-80
2023/11/03 10:37:08;;;;;;;5.30;1.67;;;;;;;9.03;81.15;94143.22;6287803;22;20067;-80
2023/11/03 10:39:37;;;;;;;6.82;1.92;;;;;;;9.03;80.19;94138.03;6289307;22;20015;-80
2023/11/03 10:42:06;;;;;;;2.03;1.40;;;;;;;9.05;79.98;94142.97;6287197;22;20437;-80
2023/11/03 10:44:36;;;;;;;3.00;1.13;;;;;;;9.06;77.86;94132.34;6287691;22;20526;-80
2023/11/03 10:47:07;;;;;;;3.78;1.50;;;;;;;9.04;77.09;94136.97;6288436;22;20350;-83
2023/11/03 10:49:40;;;;;;;4.00;1.63;;;;;;;9.05;77.28;94133.38;6285367;22;20462;-82
2023/11/03 10:52:16;;;;;;;3.53;1.42;;;;;;;9.08;79.02;94132.13;6284751;22;20015;-83
2023/11/03 10:54:55;;;;;;;2.05;1.15;;;;;;;9.12;78.72;94148.03;6285624;22;20023;-83
2023/11/03 10:57:23;;;;;;;1.70;1.40;;;;;;;9.12;77.28;94135.84;6283474;22;20015;-83
2023/11/03 11:00:00;;;;;;;3.92;1.50;;;;;;;9.12;78.74;94142.81;6284866;22;20016;-82
2023/11/03 11:02:32;;;;;;;4.00;1.85;;;;;;;9.11;79.25;94139.44;6288922;22;20016;-80
2023/11/03 11:05:06;;;;;;;2.15;1.38;;;;;;;9.10;78.15;94137.88;6289299;22;20023;-80
2023/11/03 11:07:37;;;;;;;2.70;1.35;;;;;;;9.14;77.11;94140.78;6288518;22;20022;-80
2023/11/03 11:10:08;;;;;;;4.55;1.80;;;;;;;9.18;77.84;94139.31;6288596;22;20353;-80
2023/11/03 11:12:47;;;;;;;4.85;1.73;;;;;;;9.20;78.80;94145.06;6287794;22;20019;-80
2023/11/03 11:15:17;;;;;;;3.35;0.80;;;;;;;9.21;76.16;94144.06;6287688;22;20016;-80
2023/11/03 11:17:46;;;;;;;3.10;1.48;;;;;;;9.19;76.16;94143.50;6286911;22;20505;-80
2023/11/03 11:20:19;;;;;;;2.55;0.80;;;;;;;9.19;76.15;94140.91;6287632;22;20019;-80
2023/11/03 11:23:04;;;;;;;4.25;0.90;;;;;;;9.22;75.32;94143.03;6288594;22;20022;-80
2023/11/03 11:25:34;;;;;;;1.30;0.60;;;;;;;9.23;73.78;94144.63;6287475;22;20020;-80
2023/11/03 11:28:02;;;;;;;2.60;1.27;;;;;;;9.25;75.33;94147.78;6286792;22;20098;-80
2023/11/03 11:30:34;;;;;;;3.38;0.90;;;;;;;9.29;74.35;94151.47;6288351;22;20085;-80
2023/11/03 11:33:02;;;;;;;2.70;0.70;;;;;;;9.30;73.08;94150.47;6288245;22;20024;-80
2023/11/03 11:35:38;;;;;;;1.13;0.85;;;;;;;9.31;73.32;94146.81;6286886;22;20391;-80
2023/11/03 11:38:06;;;;;;;3.13;1.20;;;;;;;9.35;75.71;94147.94;6294582;22;20019;-81
2023/11/03 11:40:36;;;;;;;3.70;1.33;;;;;;;9.39;75.04;94151.66;6294278;22;20015;-80
2023/11/03 11:43:10;;;;;;;4.07;1.60;;;;;;;9.43;76.39;94152.75;6290179;22;20020;-80
2023/11/03 11:45:51;;;;;;;3.63;0.90;;;;;;;9.47;75.56;94148.66;6289970;22;20073;-82
2023/11/03 11:50:49;;;;;;;2.85;0.90;;;;;;;9.48;73.87;94147.63;6240861;23;20020;-80